KAFO/AFO METAR and TAF weather

Enter ICAO airport designator
Station Type Date Time Source
KAFO METAR 2018/07/21 03:55 UTC NOAA

KAFO 210355Z AUTO 11004KT 10SM BKN100 19/08 A3019 RMK AO2


Station Type Date Time Source
KAFO Decoded METAR 2018/07/21 03:55 UTC NOAA

Station name not available
Jul 20, 2018 - 11:55 PM EDT / 2018.07.21 0355 UTC
Wind: from the ESE (110 degrees) at 5 MPH (4 KT):0
Visibility: 10 mile(s):0
Sky conditions: mostly cloudy
Temperature: 66 F (19 C)
Dew Point: 46 F (8 C)
Relative Humidity: 48%
Pressure (altimeter): 30.19 in. Hg (1022 hPa)
ob: KAFO 210355Z AUTO 11004KT 10SM BKN100 19/08 A3019 RMK AO2
cycle: 4

Station Type Date Time Source
KAFO TAF UTC NOAA

Error!


Example: see airport list